createdAt,value
2019-01-12T00:01:52.671Z,7.10
2019-01-12T00:04:22.023Z,7.10
2019-01-12T00:06:51.268Z,7.10
2019-01-12T00:09:20.516Z,7.00
2019-01-12T00:11:49.790Z,7.00
2019-01-12T00:14:19.110Z,7.00
2019-01-12T00:16:48.351Z,7.10
2019-01-12T00:19:17.624Z,7.10
2019-01-12T00:21:46.863Z,7.10
2019-01-12T00:24:16.098Z,7.10
2019-01-12T00:26:45.681Z,7.10
2019-01-12T00:29:14.933Z,7.10
2019-01-12T00:31:44.253Z,7.10
2019-01-12T00:34:13.444Z,7.10
2019-01-12T00:36:42.623Z,7.10
2019-01-12T00:39:11.943Z,7.10
2019-01-12T00:41:41.221Z,7.10
2019-01-12T00:44:10.472Z,7.10
2019-01-12T00:46:39.785Z,7.10
2019-01-12T00:49:09.057Z,7.10
2019-01-12T00:51:38.373Z,7.10
2019-01-12T00:54:07.623Z,7.10
2019-01-12T00:56:36.977Z,7.10
2019-01-12T00:59:06.154Z,7.10
2019-01-12T01:01:35.400Z,7.10
2019-01-12T01:04:04.622Z,7.00
2019-01-12T01:06:33.928Z,7.00
2019-01-12T01:09:03.435Z,7.00
2019-01-12T01:11:32.773Z,7.00
2019-01-12T01:14:01.949Z,6.90
2019-01-12T01:16:31.188Z,6.90
2019-01-12T01:19:00.408Z,6.90
2019-01-12T01:21:29.655Z,6.90
2019-01-12T01:23:58.915Z,7.00
2019-01-12T01:26:28.206Z,6.90
2019-01-12T01:28:57.439Z,7.00
2019-01-12T01:31:26.611Z,6.90
2019-01-12T01:33:55.888Z,6.90
2019-01-12T01:36:25.055Z,6.90
2019-01-12T01:38:54.354Z,6.90
2019-01-12T01:41:23.641Z,6.90
2019-01-12T01:43:52.886Z,6.90
2019-01-12T01:46:22.147Z,6.90
2019-01-12T01:48:51.359Z,6.90
2019-01-12T01:51:20.681Z,6.90
2019-01-12T01:53:49.853Z,6.90
2019-01-12T01:56:19.147Z,6.90
2019-01-12T01:58:48.416Z,6.90
2019-01-12T02:01:17.598Z,6.80
2019-01-12T02:03:46.928Z,6.80
2019-01-12T02:06:16.174Z,6.80
2019-01-12T02:08:45.363Z,6.90
2019-01-12T02:11:14.640Z,6.80
2019-01-12T02:13:43.874Z,6.80
2019-01-12T02:16:13.047Z,6.90
2019-01-12T02:18:42.255Z,6.80
2019-01-12T02:21:11.522Z,6.80
2019-01-12T02:23:40.781Z,6.80
2019-01-12T02:26:10.130Z,6.80
2019-01-12T02:28:39.446Z,6.80
2019-01-12T02:31:09.076Z,6.70
2019-01-12T02:33:38.769Z,6.70
2019-01-12T02:36:08.025Z,6.70
2019-01-12T02:38:37.347Z,6.70
2019-01-12T02:41:06.630Z,6.70
2019-01-12T02:43:35.869Z,6.70
2019-01-12T02:46:05.591Z,6.70
2019-01-12T02:48:34.918Z,6.70
2019-01-12T02:51:04.367Z,6.70
2019-01-12T02:53:33.682Z,6.60
2019-01-12T02:56:03.057Z,6.60
2019-01-12T02:58:32.304Z,6.50
2019-01-12T03:01:01.554Z,6.60
2019-01-12T03:03:30.908Z,6.50
2019-01-12T03:06:00.226Z,6.50
2019-01-12T03:08:29.493Z,6.50
2019-01-12T03:10:58.704Z,6.50
2019-01-12T03:13:28.063Z,6.50
2019-01-12T03:15:57.320Z,6.50
2019-01-12T03:18:26.626Z,6.50
2019-01-12T03:20:55.939Z,6.50
2019-01-12T03:23:25.256Z,6.50
2019-01-12T03:25:54.525Z,6.40
2019-01-12T03:28:23.789Z,6.40
2019-01-12T03:30:52.983Z,6.40
2019-01-12T03:33:22.262Z,6.40
2019-01-12T03:35:51.572Z,6.40
2019-01-12T03:38:20.847Z,6.40
2019-01-12T03:40:50.161Z,6.40
2019-01-12T03:43:19.459Z,6.30
2019-01-12T03:45:49.931Z,6.40
2019-01-12T03:48:19.132Z,6.30
2019-01-12T03:50:48.379Z,6.40
2019-01-12T03:53:17.616Z,6.30
2019-01-12T03:55:46.885Z,6.40
2019-01-12T03:58:16.133Z,6.30
2019-01-12T04:00:45.364Z,6.40
2019-01-12T04:03:14.632Z,6.40
2019-01-12T04:05:43.888Z,6.40
2019-01-12T04:08:13.185Z,6.40
2019-01-12T04:10:42.463Z,6.40
2019-01-12T04:13:11.672Z,6.40
2019-01-12T04:15:40.929Z,6.40
2019-01-12T04:18:10.119Z,6.40
2019-01-12T04:20:39.366Z,6.40
2019-01-12T04:23:08.647Z,6.40
2019-01-12T04:25:37.991Z,6.40
2019-01-12T04:28:07.239Z,6.40
2019-01-12T04:30:36.549Z,6.30
2019-01-12T04:33:05.828Z,6.30
2019-01-12T04:35:35.069Z,6.30
2019-01-12T04:38:04.328Z,6.30
2019-01-12T04:40:33.715Z,6.30
2019-01-12T04:43:02.949Z,6.30
2019-01-12T04:45:32.218Z,6.30
2019-01-12T04:48:01.585Z,6.30
2019-01-12T04:50:30.840Z,6.30
2019-01-12T04:53:00.089Z,6.30
2019-01-12T04:55:29.441Z,6.30
2019-01-12T04:57:58.694Z,6.20
2019-01-12T05:00:28.012Z,6.30
2019-01-12T05:02:57.279Z,6.30
2019-01-12T05:05:26.528Z,6.30
2019-01-12T05:07:55.781Z,6.30
2019-01-12T05:10:24.984Z,6.30
2019-01-12T05:12:54.242Z,6.30
2019-01-12T05:15:23.505Z,6.30
2019-01-12T05:17:52.787Z,6.30
2019-01-12T05:20:22.361Z,6.30
2019-01-12T05:22:51.616Z,6.30
2019-01-12T05:25:20.909Z,6.30
2019-01-12T05:27:50.155Z,6.30
2019-01-12T05:30:21.619Z,6.30
2019-01-12T05:32:51.270Z,6.30
2019-01-12T05:35:20.712Z,6.40
2019-01-12T05:37:49.881Z,6.40
2019-01-12T05:40:19.357Z,6.40
2019-01-12T05:42:48.532Z,6.40
2019-01-12T05:45:17.713Z,6.40
2019-01-12T05:47:46.924Z,6.40
2019-01-12T05:50:16.104Z,6.40
2019-01-12T05:52:45.417Z,6.40
2019-01-12T05:55:14.592Z,6.40
2019-01-12T05:57:43.781Z,6.40
2019-01-12T06:00:18.579Z,6.40
2019-01-12T06:02:47.819Z,6.40
2019-01-12T06:05:17.084Z,6.40
2019-01-12T06:07:46.352Z,6.40
2019-01-12T06:10:15.727Z,6.40
2019-01-12T06:12:44.923Z,6.40
2019-01-12T06:15:15.140Z,6.50
2019-01-12T06:17:44.464Z,6.50
2019-01-12T06:20:14.806Z,6.50
2019-01-12T06:22:44.264Z,6.50
2019-01-12T06:25:13.917Z,6.50
2019-01-12T06:27:43.167Z,6.50
2019-01-12T06:30:20.017Z,6.50
2019-01-12T06:32:49.269Z,6.50
2019-01-12T06:35:18.592Z,6.50
2019-01-12T06:37:48.444Z,6.50
2019-01-12T06:40:19.535Z,6.60
2019-01-12T06:42:48.997Z,6.60
2019-01-12T06:45:19.130Z,6.50
2019-01-12T06:47:48.374Z,6.50
2019-01-12T06:50:19.175Z,6.50
2019-01-12T06:52:48.550Z,6.50
2019-01-12T06:55:17.826Z,6.60
2019-01-12T06:57:47.140Z,6.60
2019-01-12T07:00:20.690Z,6.60
2019-01-12T07:02:50.244Z,6.60
2019-01-12T07:05:19.434Z,6.60
2019-01-12T07:07:48.707Z,6.60
2019-01-12T07:10:18.273Z,6.60
2019-01-12T07:12:47.526Z,6.60
2019-01-12T07:15:16.732Z,6.60
2019-01-12T07:17:45.994Z,6.60
2019-01-12T07:20:16.762Z,6.60
2019-01-12T07:22:46.473Z,6.60
2019-01-12T07:25:16.193Z,6.60
2019-01-12T07:27:45.528Z,6.50
2019-01-12T07:30:22.691Z,6.60
2019-01-12T07:32:51.942Z,6.50
2019-01-12T07:35:21.191Z,6.50
2019-01-12T07:37:50.555Z,6.50
2019-01-12T07:40:19.880Z,6.50
2019-01-12T07:42:49.304Z,6.50
2019-01-12T07:45:18.694Z,6.50
2019-01-12T07:47:48.082Z,6.50
2019-01-12T07:50:17.414Z,6.50
2019-01-12T07:52:46.617Z,6.50
2019-01-12T07:55:15.886Z,6.50
2019-01-12T07:57:48.123Z,6.50
2019-01-12T08:00:22.077Z,6.50
2019-01-12T08:02:51.629Z,6.50
2019-01-12T08:05:22.111Z,6.50
2019-01-12T08:07:51.445Z,6.50
2019-01-12T08:10:33.161Z,6.50
2019-01-12T08:13:02.463Z,6.50
2019-01-12T08:15:31.928Z,6.50
2019-01-12T08:18:01.258Z,6.40
2019-01-12T08:20:30.626Z,6.40
2019-01-12T08:22:59.860Z,6.50
2019-01-12T08:25:29.038Z,6.50
2019-01-12T08:27:58.610Z,6.50
2019-01-12T08:30:27.986Z,6.50
2019-01-12T08:32:57.530Z,6.50
2019-01-12T08:35:26.826Z,6.50
2019-01-12T08:37:56.098Z,6.50
2019-01-12T08:40:25.586Z,6.40
2019-01-12T08:42:54.871Z,6.50
2019-01-12T08:45:25.474Z,6.50
2019-01-12T08:47:54.873Z,6.50
2019-01-12T08:50:24.365Z,6.50
2019-01-12T08:52:53.986Z,6.50
2019-01-12T08:55:24.647Z,6.60
2019-01-12T08:57:54.248Z,6.60
2019-01-12T09:00:23.979Z,6.70
2019-01-12T09:02:53.161Z,6.80
2019-01-12T09:05:22.456Z,6.80
2019-01-12T09:07:51.649Z,6.70
2019-01-12T09:10:21.979Z,6.80
2019-01-12T09:12:51.619Z,6.90
2019-01-12T09:15:21.331Z,6.90
2019-01-12T09:17:50.581Z,6.90
2019-01-12T09:20:19.898Z,6.90
2019-01-12T09:22:49.332Z,6.90
2019-01-12T09:25:18.687Z,6.80
2019-01-12T09:27:47.898Z,6.90
2019-01-12T09:30:19.691Z,6.80
2019-01-12T09:32:49.680Z,6.80
2019-01-12T09:35:19.619Z,6.80
2019-01-12T09:37:48.951Z,6.80
2019-01-12T09:40:20.199Z,6.80
2019-01-12T09:42:49.586Z,6.80
2019-01-12T09:45:19.513Z,6.80
2019-01-12T09:47:49.058Z,6.80
2019-01-12T09:50:19.774Z,6.80
2019-01-12T09:52:51.231Z,6.90
2019-01-12T09:55:20.584Z,6.90
2019-01-12T09:57:49.883Z,7.00
2019-01-12T10:00:24.679Z,7.10
2019-01-12T10:02:54.011Z,7.10
2019-01-12T10:05:23.306Z,7.20
2019-01-12T10:07:52.830Z,7.20
2019-01-12T10:10:23.046Z,7.20
2019-01-12T10:12:52.380Z,7.30
2019-01-12T10:15:22.654Z,7.30
2019-01-12T10:17:52.337Z,7.20
2019-01-12T10:20:21.692Z,7.20
2019-01-12T10:22:50.950Z,7.30
2019-01-12T10:25:20.214Z,7.30
2019-01-12T10:27:49.398Z,7.30
2019-01-12T10:30:23.857Z,7.30
2019-01-12T10:32:53.376Z,7.30
2019-01-12T10:35:22.689Z,7.30
2019-01-12T10:37:51.969Z,7.30
2019-01-12T10:40:21.327Z,7.30
2019-01-12T10:42:51.152Z,7.40
2019-01-12T10:45:22.497Z,7.40
2019-01-12T10:47:52.384Z,7.40
2019-01-12T10:50:33.197Z,7.40
2019-01-12T10:53:02.591Z,7.40
2019-01-12T10:55:31.928Z,7.40
2019-01-12T10:58:02.161Z,7.40
2019-01-12T11:00:34.491Z,7.40
2019-01-12T11:03:04.326Z,7.20
2019-01-12T11:05:34.007Z,7.10
2019-01-12T11:08:03.572Z,7.10
2019-01-12T11:10:32.885Z,7.00
2019-01-12T11:13:02.324Z,7.10
2019-01-12T11:15:31.664Z,7.00
2019-01-12T11:18:01.027Z,7.10
2019-01-12T11:20:30.408Z,7.10
2019-01-12T11:22:59.887Z,7.20
2019-01-12T11:25:29.169Z,7.10
2019-01-12T11:27:58.395Z,7.10
2019-01-12T11:30:27.706Z,7.10
2019-01-12T11:32:56.968Z,7.20
2019-01-12T11:35:26.447Z,7.20
2019-01-12T11:37:55.645Z,7.20
2019-01-12T11:40:25.013Z,7.20
2019-01-12T11:42:54.334Z,7.20
2019-01-12T11:45:24.289Z,7.20
2019-01-12T11:47:53.973Z,7.20
2019-01-12T11:50:23.350Z,7.20
2019-01-12T11:52:52.607Z,7.20
2019-01-12T11:55:21.797Z,7.20
2019-01-12T11:57:51.093Z,7.20
2019-01-12T12:00:28.847Z,7.20
2019-01-12T12:02:58.239Z,7.20
2019-01-12T12:05:27.570Z,7.20
2019-01-12T12:07:57.282Z,7.20
2019-01-12T12:10:26.809Z,7.20
2019-01-12T12:12:56.054Z,7.20
2019-01-12T12:15:25.283Z,7.20
2019-01-12T12:17:54.608Z,7.20
2019-01-12T12:20:26.377Z,7.20
2019-01-12T12:22:55.886Z,7.20
2019-01-12T12:25:25.171Z,7.20
2019-01-12T12:27:54.716Z,7.20
2019-01-12T12:30:33.172Z,7.20
2019-01-12T12:33:02.466Z,7.10
2019-01-12T12:35:37.639Z,7.10
2019-01-12T12:38:02.719Z,7.10
2019-01-12T12:40:31.929Z,7.10
2019-01-12T12:43:01.262Z,7.10
2019-01-12T12:45:32.958Z,7.10
2019-01-12T12:48:02.296Z,7.10
2019-01-12T12:50:31.659Z,7.10
2019-01-12T12:53:00.962Z,7.10
2019-01-12T12:55:30.198Z,7.10
2019-01-12T12:58:01.047Z,7.10
2019-01-12T13:00:32.897Z,7.10
2019-01-12T13:03:02.154Z,7.00
2019-01-12T13:05:31.781Z,7.00
2019-01-12T13:08:01.188Z,7.10
2019-01-12T13:10:31.932Z,7.10
2019-01-12T13:13:01.292Z,7.10
2019-01-12T13:15:30.798Z,7.10
2019-01-12T13:18:00.490Z,7.10
2019-01-12T13:20:29.778Z,7.10
2019-01-12T13:22:59.171Z,7.20
2019-01-12T13:25:29.549Z,7.10
2019-01-12T13:28:01.150Z,7.20
2019-01-12T13:30:30.556Z,7.10
2019-01-12T13:32:59.884Z,7.10
2019-01-12T13:35:29.462Z,7.20
2019-01-12T13:37:59.047Z,7.20
2019-01-12T13:40:29.441Z,7.20
2019-01-12T13:42:58.800Z,7.20
2019-01-12T13:45:28.163Z,7.30
2019-01-12T13:47:57.424Z,7.30
2019-01-12T13:50:28.150Z,7.30
2019-01-12T13:52:57.725Z,7.30
2019-01-12T13:55:28.701Z,7.40
2019-01-12T13:57:57.973Z,7.30
2019-01-12T14:00:35.315Z,7.40
2019-01-12T14:03:06.735Z,7.40
2019-01-12T14:05:36.191Z,7.40
2019-01-12T14:08:06.772Z,7.40
2019-01-12T14:10:36.241Z,7.50
2019-01-12T14:13:06.879Z,7.50
2019-01-12T14:15:36.376Z,7.50
2019-01-12T14:18:06.341Z,7.50
2019-01-12T14:20:42.025Z,7.50
2019-01-12T14:23:11.699Z,7.60
2019-01-12T14:25:41.026Z,7.60
2019-01-12T14:28:10.305Z,7.60
2019-01-12T14:30:39.555Z,7.60
2019-01-12T14:33:08.737Z,7.70
2019-01-12T14:35:38.041Z,7.60
2019-01-12T14:38:07.267Z,7.60
2019-01-12T14:40:36.595Z,7.70
2019-01-12T14:43:06.198Z,7.70
2019-01-12T14:45:35.757Z,7.70
2019-01-12T14:48:05.858Z,7.70
2019-01-12T14:50:35.547Z,7.80
2019-01-12T14:53:05.497Z,7.80
2019-01-12T14:55:34.732Z,7.80
2019-01-12T14:58:04.757Z,7.80
2019-01-12T15:00:33.964Z,7.80
2019-01-12T15:03:03.251Z,7.80
2019-01-12T15:05:33.884Z,7.90
2019-01-12T15:08:03.211Z,7.90
2019-01-12T15:10:32.916Z,7.90
2019-01-12T15:13:02.522Z,7.90
2019-01-12T15:15:31.808Z,7.90
2019-01-12T15:18:01.069Z,7.90
2019-01-12T15:20:30.994Z,8.00
2019-01-12T15:23:00.766Z,8.00
2019-01-12T15:25:30.027Z,8.00
2019-01-12T15:27:59.386Z,8.00
2019-01-12T15:30:30.401Z,8.00
2019-01-12T15:33:01.392Z,8.10
2019-01-12T15:35:32.331Z,8.10
2019-01-12T15:38:01.581Z,8.10
2019-01-12T15:40:30.860Z,8.10
2019-01-12T15:43:00.158Z,8.10
2019-01-12T15:45:29.404Z,8.10
2019-01-12T15:47:58.734Z,8.20
2019-01-12T15:50:28.365Z,8.20
2019-01-12T15:52:57.696Z,8.10
2019-01-12T15:55:27.243Z,8.20
2019-01-12T15:57:56.539Z,8.20
2019-01-12T16:00:27.713Z,8.20
2019-01-12T16:02:57.278Z,8.20
2019-01-12T16:05:27.307Z,8.20
2019-01-12T16:07:56.566Z,8.20
2019-01-12T16:10:25.894Z,8.20
2019-01-12T16:12:55.252Z,8.20
2019-01-12T16:15:26.235Z,8.20
2019-01-12T16:17:57.185Z,8.20
2019-01-12T16:20:32.678Z,8.20
2019-01-12T16:23:02.187Z,8.20
2019-01-12T16:25:31.421Z,8.20
2019-01-12T16:28:00.875Z,8.20
2019-01-12T16:30:30.210Z,8.20
2019-01-12T16:32:59.461Z,8.20
2019-01-12T16:35:28.768Z,8.20
2019-01-12T16:37:58.098Z,8.20
2019-01-12T16:40:27.682Z,8.20
2019-01-12T16:42:57.109Z,8.20
2019-01-12T16:45:26.458Z,8.20
2019-01-12T16:47:55.898Z,8.20
2019-01-12T16:50:25.270Z,8.20
2019-01-12T16:52:54.556Z,8.20
2019-01-12T16:55:23.907Z,8.10
2019-01-12T16:57:53.177Z,8.10
2019-01-12T17:00:30.859Z,8.00
2019-01-12T17:03:00.845Z,8.00
2019-01-12T17:05:30.140Z,8.00
2019-01-12T17:07:59.460Z,8.00
2019-01-12T17:10:28.752Z,8.00
2019-01-12T17:12:58.091Z,8.00
2019-01-12T17:15:34.431Z,8.00
2019-01-12T17:17:58.258Z,8.00
2019-01-12T17:20:28.774Z,8.00
2019-01-12T17:23:00.312Z,8.00
2019-01-12T17:25:29.546Z,8.00
2019-01-12T17:27:58.873Z,8.00
2019-01-12T17:30:28.152Z,8.00
2019-01-12T17:32:57.514Z,8.00
2019-01-12T17:35:27.359Z,8.00
2019-01-12T17:37:56.694Z,8.00
2019-01-12T17:40:26.052Z,7.90
2019-01-12T17:42:55.368Z,8.00
2019-01-12T17:45:26.121Z,7.90
2019-01-12T17:47:55.497Z,8.00
2019-01-12T17:50:28.715Z,7.90
2019-01-12T17:52:58.040Z,8.00
2019-01-12T17:55:28.566Z,8.00
2019-01-12T17:57:58.363Z,8.00
2019-01-12T18:01:00.673Z,8.00
2019-01-12T18:03:29.921Z,8.00
2019-01-12T18:05:59.245Z,8.00
2019-01-12T18:08:28.496Z,8.00
2019-01-12T18:10:57.666Z,8.00
2019-01-12T18:13:27.038Z,8.00
2019-01-12T18:15:56.339Z,8.00
2019-01-12T18:18:25.718Z,8.00
2019-01-12T18:20:54.978Z,8.00
2019-01-12T18:23:24.331Z,8.00
2019-01-12T18:25:53.664Z,8.00
2019-01-12T18:28:22.919Z,8.00
2019-01-12T18:30:52.134Z,8.00
2019-01-12T18:33:21.328Z,8.00
2019-01-12T18:35:50.567Z,8.00
2019-01-12T18:38:19.862Z,8.00
2019-01-12T18:40:49.033Z,8.10
2019-01-12T18:43:18.425Z,8.10
2019-01-12T18:45:47.709Z,8.10
2019-01-12T18:48:16.981Z,8.10
2019-01-12T18:50:46.220Z,8.10
2019-01-12T18:53:15.632Z,8.10
2019-01-12T18:55:44.879Z,8.10
2019-01-12T18:58:14.060Z,8.10
2019-01-12T19:00:43.373Z,8.10
2019-01-12T19:03:12.639Z,8.10
2019-01-12T19:05:41.884Z,8.10
2019-01-12T19:08:11.104Z,8.20
2019-01-12T19:10:40.384Z,8.20
2019-01-12T19:13:09.620Z,8.20
2019-01-12T19:15:38.921Z,8.20
2019-01-12T19:18:08.335Z,8.20
2019-01-12T19:20:38.267Z,8.20
2019-01-12T19:23:07.812Z,8.20
2019-01-12T19:25:37.096Z,8.20
2019-01-12T19:28:06.289Z,8.20
2019-01-12T19:30:35.600Z,8.20
2019-01-12T19:33:04.856Z,8.20
2019-01-12T19:35:34.104Z,8.20
2019-01-12T19:38:03.474Z,8.20
2019-01-12T19:40:32.810Z,8.30
2019-01-12T19:43:02.134Z,8.20
2019-01-12T19:45:31.343Z,8.20
2019-01-12T19:48:00.667Z,8.20
2019-01-12T19:50:29.993Z,8.20
2019-01-12T19:52:59.373Z,8.20
2019-01-12T19:55:28.626Z,8.30
2019-01-12T19:57:57.870Z,8.30
2019-01-12T20:00:34.539Z,8.20
2019-01-12T20:03:03.782Z,8.20
2019-01-12T20:05:33.052Z,8.30
2019-01-12T20:08:02.418Z,8.20
2019-01-12T20:10:31.856Z,8.30
2019-01-12T20:13:01.323Z,8.30
2019-01-12T20:15:30.882Z,8.30
2019-01-12T20:18:02.149Z,8.30
2019-01-12T20:20:31.175Z,8.30
2019-01-12T20:23:00.530Z,8.30
2019-01-12T20:25:31.343Z,8.30
2019-01-12T20:28:09.573Z,8.30
2019-01-12T20:31:27.852Z,8.30
2019-01-12T20:34:20.396Z,8.30
2019-01-12T20:37:31.427Z,8.30
2019-01-12T20:40:20.121Z,8.30
2019-01-12T20:43:25.374Z,8.30
2019-01-12T20:46:42.382Z,8.30
2019-01-12T20:49:23.127Z,8.20
2019-01-12T20:52:09.957Z,8.20
2019-01-12T20:55:02.203Z,8.30
2019-01-12T20:58:18.623Z,8.30
2019-01-12T21:01:04.861Z,8.20
2019-01-12T21:04:00.407Z,8.20
2019-01-12T21:07:08.232Z,8.20
2019-01-12T21:10:12.935Z,8.10
2019-01-12T21:13:18.274Z,8.10
2019-01-12T21:15:56.009Z,8.10
2019-01-12T21:18:25.362Z,8.20
2019-01-12T21:20:54.615Z,8.20
2019-01-12T21:23:23.977Z,8.20
2019-01-12T21:25:53.246Z,8.20
2019-01-12T21:28:22.507Z,8.20
2019-01-12T21:30:51.858Z,8.20
2019-01-12T21:33:21.177Z,8.20
2019-01-12T21:35:50.347Z,8.20
2019-01-12T21:38:19.637Z,8.20
2019-01-12T21:40:48.978Z,8.20
2019-01-12T21:43:18.154Z,8.20
2019-01-12T21:45:47.475Z,8.20
2019-01-12T21:48:16.788Z,8.30
2019-01-12T21:50:46.050Z,8.30
2019-01-12T21:53:15.349Z,8.30
2019-01-12T21:55:44.620Z,8.30
2019-01-12T21:58:13.941Z,8.30
2019-01-12T22:00:43.215Z,8.30
2019-01-12T22:03:12.483Z,8.30
2019-01-12T22:05:41.661Z,8.30
2019-01-12T22:08:10.884Z,8.30
2019-01-12T22:10:40.201Z,8.30
2019-01-12T22:13:09.454Z,8.30
2019-01-12T22:15:38.823Z,8.30
2019-01-12T22:18:08.135Z,8.30
2019-01-12T22:20:37.390Z,8.30
2019-01-12T22:23:06.593Z,8.30
2019-01-12T22:25:35.920Z,8.30
2019-01-12T22:28:05.646Z,8.30
2019-01-12T22:30:35.014Z,8.30
2019-01-12T22:33:04.445Z,8.30
2019-01-12T22:35:33.789Z,8.30
2019-01-12T22:38:03.155Z,8.30
2019-01-12T22:40:32.423Z,8.20
2019-01-12T22:43:01.681Z,8.30
2019-01-12T22:45:30.885Z,8.30
2019-01-12T22:48:00.124Z,8.30
2019-01-12T22:50:29.465Z,8.30
2019-01-12T22:52:58.674Z,8.30
2019-01-12T22:55:27.865Z,8.30
2019-01-12T22:57:57.115Z,8.20
2019-01-12T23:00:47.566Z,8.00
2019-01-12T23:03:17.745Z,8.00
2019-01-12T23:05:47.187Z,8.00
2019-01-12T23:08:16.491Z,7.90
2019-01-12T23:10:45.820Z,7.90
2019-01-12T23:13:15.056Z,7.80
2019-01-12T23:15:44.343Z,7.90
2019-01-12T23:20:43.185Z,7.80
2019-01-12T23:23:12.460Z,7.90
2019-01-12T23:25:41.759Z,7.90
2019-01-12T23:28:10.993Z,7.90
2019-01-12T23:30:40.334Z,7.80
2019-01-12T23:33:09.679Z,7.80
2019-01-12T23:35:39.027Z,7.80
2019-01-12T23:38:08.365Z,7.80
2019-01-12T23:40:37.531Z,7.80
2019-01-12T23:43:06.707Z,7.80
2019-01-12T23:45:36.070Z,7.80
2019-01-12T23:48:05.324Z,7.80
2019-01-12T23:50:34.681Z,7.80
2019-01-12T23:53:04.031Z,7.80
2019-01-12T23:55:33.303Z,7.80
2019-01-12T23:58:02.486Z,7.80
